Time;durP1;ratioP1;P1;durP2;ratioP2;P2;SDS_P1;SDS_P2;PMS_P1;PMS_P2;Temp;Humidity;BMP_temperature;BMP_pressure;BME280_temperature;BME280_humidity;BME280_pressure;Samples;Min_cycle;Max_cycle;Signal;HPM_P1;HPM_P2
2022/01/02 00:01:24;;;;;;;0.17;0.17;;;;;;;;;;4200898;28;20110;-34
2022/01/02 00:03:44;;;;;;;0.20;0.20;;;;;;;;;;4215216;28;20131;-34
2022/01/02 00:06:04;;;;;;;0.20;0.20;;;;;;;;;;4200474;28;20086;-34
2022/01/02 00:08:24;;;;;;;0.20;0.20;;;;;;;;;;4215569;28;20101;-33
2022/01/02 00:10:56;;;;;;;0.30;0.20;;;;;;;;;;4215809;28;20047;-34
2022/01/02 00:13:23;;;;;;;0.32;0.20;;;;;;;;;;4216019;28;20043;-33
2022/01/02 00:15:42;;;;;;;0.20;0.10;;;;;;;;;;4201076;28;20094;-34
2022/01/02 00:18:11;;;;;;;0.20;0.20;;;;;;;;;;4215887;28;20052;-34
2022/01/02 00:20:36;;;;;;;0.20;0.20;;;;;;;;;;4215984;28;20056;-33
2022/01/02 00:22:56;;;;;;;0.17;0.17;;;;;;;;;;4215556;28;20117;-33
2022/01/02 00:25:26;;;;;;;0.20;0.20;;;;;;;;;;4215714;28;20056;-33
2022/01/02 00:27:46;;;;;;;0.10;0.10;;;;;;;;;;4215542;28;20064;-34
2022/01/02 00:30:06;;;;;;;0.20;0.20;;;;;;;;;;4215459;28;20076;-33
2022/01/02 00:32:27;;;;;;;0.20;0.20;;;;;;;;;;4200292;28;20048;-33
2022/01/02 00:34:49;;;;;;;0.20;0.20;;;;;;;;;;4200060;28;20048;-33
2022/01/02 00:37:08;;;;;;;0.32;0.32;;;;;;;;;;4214805;28;20549;-33
2022/01/02 00:39:28;;;;;;;0.17;0.17;;;;;;;;;;4215231;28;20481;-34
2022/01/02 00:41:56;;;;;;;0.20;0.20;;;;;;;;;;4214971;28;20384;-33
2022/01/02 00:44:36;;;;;;;0.20;0.20;;;;;;;;;;4199952;28;20052;-34
2022/01/02 00:47:05;;;;;;;0.22;0.15;;;;;;;;;;4199872;28;20067;-33
2022/01/02 00:49:25;;;;;;;0.13;0.13;;;;;;;;;;4215136;28;20056;-33
2022/01/02 00:51:49;;;;;;;0.10;0.10;;;;;;;;;;4214522;28;20079;-33
2022/01/02 00:54:13;;;;;;;0.20;0.20;;;;;;;;;;4215224;28;20071;-34
2022/01/02 00:56:34;;;;;;;0.20;0.20;;;;;;;;;;4214650;28;20469;-34
2022/01/02 00:58:57;;;;;;;0.20;0.20;;;;;;;;;;4215207;28;20048;-34
2022/01/02 01:01:22;;;;;;;0.30;0.20;;;;;;;;;;4215225;28;20105;-34
2022/01/02 01:03:42;;;;;;;0.10;0.10;;;;;;;;;;4199878;28;20048;-34
2022/01/02 01:06:02;;;;;;;0.30;0.22;;;;;;;;;;4215179;28;20048;-33
2022/01/02 01:08:22;;;;;;;0.40;0.20;;;;;;;;;;4199068;28;20109;-34
2022/01/02 01:10:44;;;;;;;0.45;0.20;;;;;;;;;;4214742;28;20052;-34
2022/01/02 01:13:05;;;;;;;0.20;0.20;;;;;;;;;;4214925;28;20044;-33
2022/01/02 01:15:27;;;;;;;0.52;0.30;;;;;;;;;;4199781;28;20074;-34
2022/01/02 01:17:46;;;;;;;0.60;0.30;;;;;;;;;;4199420;28;20408;-33
2022/01/02 01:20:07;;;;;;;0.20;0.20;;;;;;;;;;4214591;28;20083;-34
2022/01/02 01:22:26;;;;;;;0.30;0.30;;;;;;;;;;4214173;28;20398;-34
2022/01/02 01:24:46;;;;;;;0.10;0.10;;;;;;;;;;4196500;28;20060;-33
2022/01/02 01:27:08;;;;;;;0.20;0.20;;;;;;;;;;4196680;28;20455;-33
2022/01/02 01:29:33;;;;;;;0.38;0.30;;;;;;;;;;4197822;28;20076;-33
2022/01/02 01:31:55;;;;;;;0.20;0.20;;;;;;;;;;4196625;28;20056;-33
2022/01/02 01:34:15;;;;;;;;;;;;;;;;;;4183007;28;20053;-34
2022/01/02 01:36:35;;;;;;;0.75;0.43;;;;;;;;;;4197600;28;19920;-33
2022/01/02 01:38:55;;;;;;;0.22;0.22;;;;;;;;;;4197497;28;20052;-34
2022/01/02 01:41:19;;;;;;;0.40;0.40;;;;;;;;;;4196450;28;20373;-33
2022/01/02 01:43:53;;;;;;;0.17;0.13;;;;;;;;;;4196572;28;20049;-33
2022/01/02 01:46:13;;;;;;;0.17;0.17;;;;;;;;;;4182272;28;20052;-33
2022/01/02 01:48:32;;;;;;;0.30;0.30;;;;;;;;;;4196122;28;20075;-33
2022/01/02 01:50:52;;;;;;;;;;;;;;;;;;4183023;28;20049;-33
2022/01/02 01:53:15;;;;;;;0.30;0.10;;;;;;;;;;4181945;28;19916;-33
2022/01/02 01:55:36;;;;;;;0.10;0.10;;;;;;;;;;4182314;28;20422;-33
2022/01/02 01:57:56;;;;;;;0.20;0.20;;;;;;;;;;4197440;28;20056;-34
2022/01/02 02:00:18;;;;;;;0.30;0.30;;;;;;;;;;4181959;28;20452;-33
2022/01/02 02:02:37;;;;;;;;;;;;;;;;;;4197435;28;20052;-33
2022/01/02 02:04:56;;;;;;;0.28;0.28;;;;;;;;;;4182219;28;19916;-33
2022/01/02 02:07:27;;;;;;;0.32;0.30;;;;;;;;;;4194517;28;20484;-33
2022/01/02 02:10:09;;;;;;;0.20;0.20;;;;;;;;;;4182238;28;20049;-34
2022/01/02 02:12:30;;;;;;;0.30;0.30;;;;;;;;;;4182034;28;20049;-34
2022/01/02 02:14:50;;;;;;;0.20;0.20;;;;;;;;;;4182117;28;20120;-33
2022/01/02 02:17:09;;;;;;;;;;;;;;;;;;4196439;28;20118;-33
2022/01/02 02:19:29;;;;;;;0.20;0.20;;;;;;;;;;4196883;28;20375;-33
2022/01/02 02:21:49;;;;;;;0.28;0.25;;;;;;;;;;4181499;28;20056;-32
2022/01/02 02:24:08;;;;;;;0.20;0.20;;;;;;;;;;4195668;28;20459;-33
2022/01/02 02:26:28;;;;;;;0.17;0.10;;;;;;;;;;4181712;28;20044;-34
2022/01/02 02:28:48;;;;;;;0.43;0.30;;;;;;;;;;4196818;28;20052;-33
2022/01/02 02:31:08;;;;;;;0.20;0.20;;;;;;;;;;4181971;28;20079;-33
2022/01/02 02:33:28;;;;;;;0.20;0.20;;;;;;;;;;4195696;28;20393;-33
2022/01/02 02:35:48;;;;;;;0.17;0.17;;;;;;;;;;4196872;28;20057;-34
2022/01/02 02:38:09;;;;;;;0.20;0.20;;;;;;;;;;4195236;28;20060;-34
2022/01/02 02:40:30;;;;;;;0.10;0.10;;;;;;;;;;4195692;28;20052;-34
2022/01/02 02:43:00;;;;;;;0.17;0.17;;;;;;;;;;4181748;28;20053;-34
2022/01/02 02:50:57;;;;;;;0.30;0.30;;;;;;;;;;4195353;28;20113;-34
2022/01/02 02:53:17;;;;;;;0.20;0.20;;;;;;;;;;4196464;28;20040;-33
2022/01/02 02:55:43;;;;;;;0.17;0.10;;;;;;;;;;4181735;28;20178;-33
2022/01/02 02:58:27;;;;;;;0.32;0.20;;;;;;;;;;4181466;28;20106;-33
2022/01/02 03:00:42;;;;;;;0.10;0.10;;;;;;;;;;4196829;28;20048;-33
2022/01/02 03:03:02;;;;;;;0.35;0.15;;;;;;;;;;4195458;28;20052;-34
2022/01/02 03:05:22;;;;;;;;;;;;;;;;;;4197447;28;20057;-33
2022/01/02 03:07:41;;;;;;;0.20;0.20;;;;;;;;;;4196369;28;19927;-34
2022/01/02 03:10:02;;;;;;;;;;;;;;;;;;4197354;28;20106;-34
2022/01/02 03:12:22;;;;;;;0.20;0.20;;;;;;;;;;4180823;28;19916;-34
2022/01/02 03:14:44;;;;;;;0.17;0.17;;;;;;;;;;4197092;28;20488;-34
2022/01/02 03:17:04;;;;;;;;;;;;;;;;;;4198114;28;20049;-33
2022/01/02 03:19:23;;;;;;;0.20;0.20;;;;;;;;;;4184071;28;20384;-33
2022/01/02 03:21:44;;;;;;;0.10;0.10;;;;;;;;;;4184275;28;20091;-34
2022/01/02 03:24:03;;;;;;;0.28;0.20;;;;;;;;;;4203138;28;20056;-34
2022/01/02 03:26:24;;;;;;;0.20;0.13;;;;;;;;;;4201251;28;20056;-33
2022/01/02 03:28:44;;;;;;;0.10;0.10;;;;;;;;;;4216483;28;20056;-34
2022/01/02 03:31:03;;;;;;;0.20;0.20;;;;;;;;;;4201227;28;20056;-34
2022/01/02 03:33:26;;;;;;;0.25;0.25;;;;;;;;;;4201135;28;20044;-33
2022/01/02 03:35:46;;;;;;;0.30;0.20;;;;;;;;;;4201006;28;20473;-34
2022/01/02 03:38:07;;;;;;;0.20;0.13;;;;;;;;;;4200376;28;20105;-34
2022/01/02 03:40:28;;;;;;;0.25;0.20;;;;;;;;;;4216075;28;20055;-33
2022/01/02 03:42:48;;;;;;;0.20;0.20;;;;;;;;;;4200903;28;20508;-33
2022/01/02 03:45:08;;;;;;;0.20;0.20;;;;;;;;;;4200734;28;20512;-34
2022/01/02 03:47:27;;;;;;;;;;;;;;;;;;4201283;28;20110;-33
2022/01/02 03:49:47;;;;;;;0.20;0.20;;;;;;;;;;4186395;28;19963;-34
2022/01/02 03:52:08;;;;;;;0.52;0.20;;;;;;;;;;4200251;28;20052;-33
2022/01/02 03:54:27;;;;;;;0.20;0.13;;;;;;;;;;4216082;28;20101;-36
2022/01/02 03:56:50;;;;;;;0.10;0.10;;;;;;;;;;4215732;28;20059;-33
2022/01/02 03:59:11;;;;;;;0.13;0.10;;;;;;;;;;4215951;28;20120;-33
2022/01/02 04:01:30;;;;;;;0.17;0.17;;;;;;;;;;4200573;28;20440;-33
2022/01/02 04:03:50;;;;;;;0.10;0.10;;;;;;;;;;4216041;28;20055;-33
2022/01/02 04:06:10;;;;;;;0.17;0.17;;;;;;;;;;4216107;28;20106;-33
2022/01/02 04:08:29;;;;;;;0.20;0.20;;;;;;;;;;4200171;28;20086;-33
2022/01/02 04:10:48;;;;;;;0.15;0.15;;;;;;;;;;4200622;28;20048;-33
2022/01/02 04:13:10;;;;;;;0.20;0.20;;;;;;;;;;4200366;28;20161;-34
2022/01/02 04:15:29;;;;;;;0.15;0.15;;;;;;;;;;4200548;28;20044;-33
2022/01/02 04:17:49;;;;;;;;;;;;;;;;;;4200791;28;20090;-33
2022/01/02 04:20:10;;;;;;;0.10;0.10;;;;;;;;;;4200510;28;19921;-33
2022/01/02 04:22:30;;;;;;;0.15;0.15;;;;;;;;;;4215304;28;20051;-33
2022/01/02 04:24:50;;;;;;;0.10;0.10;;;;;;;;;;4215484;28;20500;-34
2022/01/02 04:27:09;;;;;;;0.10;0.10;;;;;;;;;;4200356;28;20067;-33
2022/01/02 04:29:29;;;;;;;0.38;0.30;;;;;;;;;;4214919;28;20564;-33
2022/01/02 04:31:48;;;;;;;0.20;0.20;;;;;;;;;;4215568;28;20052;-34
2022/01/02 04:34:08;;;;;;;0.10;0.10;;;;;;;;;;4215373;28;20458;-34
2022/01/02 04:36:28;;;;;;;0.20;0.20;;;;;;;;;;4200255;28;20048;-34
2022/01/02 04:38:48;;;;;;;0.20;0.20;;;;;;;;;;4200151;28;20127;-34
2022/01/02 04:41:08;;;;;;;0.10;0.10;;;;;;;;;;4199868;28;20053;-33
2022/01/02 04:43:28;;;;;;;0.10;0.10;;;;;;;;;;4199775;28;20081;-33
2022/01/02 04:45:48;;;;;;;;;;;;;;;;;;4200648;28;20053;-33
2022/01/02 04:48:08;;;;;;;0.10;0.10;;;;;;;;;;4199873;28;19921;-33
2022/01/02 04:50:27;;;;;;;0.10;0.10;;;;;;;;;;4199824;28;20390;-33
2022/01/02 04:52:47;;;;;;;0.20;0.20;;;;;;;;;;4199384;28;20446;-34
2022/01/02 04:55:06;;;;;;;1.08;0.20;;;;;;;;;;4200162;28;20048;-34
2022/01/02 04:57:26;;;;;;;0.17;0.17;;;;;;;;;;4199579;28;20342;-35
2022/01/02 04:59:46;;;;;;;0.20;0.20;;;;;;;;;;4199864;28;20052;-33
2022/01/02 05:02:06;;;;;;;;;;;;;;;;;;4215365;28;20180;-34
2022/01/02 05:04:26;;;;;;;0.10;0.10;;;;;;;;;;4199959;28;19917;-33
2022/01/02 05:06:45;;;;;;;0.10;0.10;;;;;;;;;;4214567;28;20044;-33
2022/01/02 05:09:05;;;;;;;0.20;0.20;;;;;;;;;;4199497;28;20583;-34
2022/01/02 05:11:25;;;;;;;;;;;;;;;;;;4200178;28;20087;-33
2022/01/02 05:13:44;;;;;;;0.10;0.10;;;;;;;;;;4199643;28;20229;-34
2022/01/02 05:16:05;;;;;;;0.20;0.20;;;;;;;;;;4199416;28;20350;-34
2022/01/02 05:18:24;;;;;;;0.20;0.20;;;;;;;;;;4214834;28;20044;-34
2022/01/02 05:20:44;;;;;;;0.30;0.20;;;;;;;;;;4214638;28;20436;-33
2022/01/02 05:23:03;;;;;;;0.10;0.10;;;;;;;;;;4199144;28;20059;-33
2022/01/02 05:25:23;;;;;;;0.13;0.13;;;;;;;;;;4214769;28;20052;-34
2022/01/02 05:27:42;;;;;;;0.10;0.10;;;;;;;;;;4214623;28;20052;-34
2022/01/02 05:30:03;;;;;;;0.17;0.17;;;;;;;;;;4199161;28;20053;-34
2022/01/02 05:32:23;;;;;;;0.20;0.20;;;;;;;;;;4199014;28;20045;-34
2022/01/02 05:34:42;;;;;;;0.15;0.15;;;;;;;;;;4199257;28;20044;-33
2022/01/02 05:37:02;;;;;;;0.20;0.20;;;;;;;;;;4213882;28;20052;-34
2022/01/02 05:39:25;;;;;;;0.20;0.20;;;;;;;;;;4214162;28;20052;-34
2022/01/02 05:41:46;;;;;;;0.10;0.10;;;;;;;;;;4198687;28;20118;-34
2022/01/02 05:44:06;;;;;;;0.20;0.10;;;;;;;;;;4199206;28;20056;-34
2022/01/02 05:46:26;;;;;;;0.13;0.10;;;;;;;;;;4199272;28;20121;-33
2022/01/02 05:48:46;;;;;;;0.25;0.13;;;;;;;;;;4198892;28;20473;-33
2022/01/02 05:51:06;;;;;;;0.10;0.10;;;;;;;;;;4185102;28;20049;-34
2022/01/02 05:53:25;;;;;;;0.55;0.10;;;;;;;;;;4198642;28;20040;-34
2022/01/02 05:55:45;;;;;;;0.20;0.20;;;;;;;;;;4198835;28;20483;-34
2022/01/02 05:58:04;;;;;;;0.00;0.00;;;;;;;;;;4199062;28;20126;-33
2022/01/02 06:00:24;;;;;;;0.13;0.10;;;;;;;;;;4198810;28;20102;-33
2022/01/02 06:02:50;;;;;;;0.13;0.10;;;;;;;;;;4198813;28;20094;-33
2022/01/02 06:05:09;;;;;;;0.25;0.15;;;;;;;;;;4213911;28;20051;-34
2022/01/02 06:07:31;;;;;;;0.10;0.10;;;;;;;;;;4198320;28;20056;-34
2022/01/02 06:09:50;;;;;;;0.10;0.10;;;;;;;;;;4212951;28;20133;-33
2022/01/02 06:12:10;;;;;;;0.25;0.20;;;;;;;;;;4198502;28;20102;-33
2022/01/02 06:14:29;;;;;;;0.08;0.08;;;;;;;;;;4214008;28;20052;-33
2022/01/02 06:16:49;;;;;;;0.10;0.10;;;;;;;;;;4198852;28;20052;-33
2022/01/02 06:19:08;;;;;;;0.10;0.10;;;;;;;;;;4198609;28;20480;-34
2022/01/02 06:21:28;;;;;;;0.15;0.15;;;;;;;;;;4213922;28;20050;-34
2022/01/02 06:23:47;;;;;;;0.10;0.10;;;;;;;;;;4198326;28;20048;-34
2022/01/02 06:26:07;;;;;;;0.20;0.10;;;;;;;;;;4198625;28;20083;-34
2022/01/02 06:28:27;;;;;;;0.20;0.20;;;;;;;;;;4213776;28;20063;-33
2022/01/02 06:30:47;;;;;;;0.10;0.10;;;;;;;;;;4213495;28;20051;-33
2022/01/02 06:33:07;;;;;;;0.50;0.20;;;;;;;;;;4198471;28;20049;-34
2022/01/02 06:35:28;;;;;;;0.10;0.10;;;;;;;;;;4213834;28;20109;-33
2022/01/02 06:37:47;;;;;;;0.00;0.00;;;;;;;;;;4197584;28;20056;-38
2022/01/02 06:40:07;;;;;;;0.10;0.10;;;;;;;;;;4213648;28;20159;-33
2022/01/02 06:42:27;;;;;;;;;;;;;;;;;;4198616;28;20052;-34
2022/01/02 06:44:47;;;;;;;0.10;0.10;;;;;;;;;;4198257;28;20368;-34
2022/01/02 06:47:07;;;;;;;0.10;0.10;;;;;;;;;;4213603;28;20048;-33
2022/01/02 06:49:26;;;;;;;0.30;0.15;;;;;;;;;;4198342;28;20049;-33
2022/01/02 06:51:46;;;;;;;0.03;0.03;;;;;;;;;;4197848;28;20057;-33
2022/01/02 06:54:06;;;;;;;0.13;0.08;;;;;;;;;;4202983;28;20040;-34
2022/01/02 06:56:26;;;;;;;0.22;0.20;;;;;;;;;;4204055;28;20044;-33
2022/01/02 06:58:45;;;;;;;0.10;0.10;;;;;;;;;;4218983;28;20321;-33
2022/01/02 07:01:05;;;;;;;0.10;0.10;;;;;;;;;;4203864;28;20048;-33
2022/01/02 07:03:25;;;;;;;;;;;;;;;;;;4219395;28;20055;-34
2022/01/02 07:05:44;;;;;;;0.10;0.10;;;;;;;;;;4203577;28;19982;-33
2022/01/02 07:08:03;;;;;;;0.10;0.10;;;;;;;;;;4203174;28;20547;-33
2022/01/02 07:10:24;;;;;;;0.15;0.15;;;;;;;;;;4189852;28;20056;-34
2022/01/02 07:12:43;;;;;;;0.20;0.20;;;;;;;;;;4203548;28;20057;-33
2022/01/02 07:15:04;;;;;;;0.10;0.10;;;;;;;;;;4219132;28;20093;-33
2022/01/02 07:17:23;;;;;;;0.10;0.10;;;;;;;;;;4219010;28;20070;-33
2022/01/02 07:19:42;;;;;;;0.10;0.10;;;;;;;;;;4219051;28;20103;-33
2022/01/02 07:22:02;;;;;;;0.10;0.10;;;;;;;;;;4218286;28;20712;-34
2022/01/02 07:24:22;;;;;;;0.10;0.10;;;;;;;;;;4218820;28;20104;-34
2022/01/02 07:26:41;;;;;;;0.10;0.10;;;;;;;;;;4218604;28;20389;-34
2022/01/02 07:29:01;;;;;;;0.10;0.10;;;;;;;;;;4218663;28;20441;-33
2022/01/02 07:31:20;;;;;;;0.10;0.10;;;;;;;;;;4218694;28;20059;-33
2022/01/02 07:33:40;;;;;;;0.63;0.15;;;;;;;;;;4203367;28;20049;-33
2022/01/02 07:35:59;;;;;;;0.08;0.08;;;;;;;;;;4218823;28;20097;-33
2022/01/02 07:38:18;;;;;;;0.10;0.10;;;;;;;;;;4218367;28;20056;-33
2022/01/02 07:40:38;;;;;;;0.47;0.10;;;;;;;;;;4218957;28;20056;-32
2022/01/02 07:42:57;;;;;;;0.10;0.10;;;;;;;;;;4218592;28;20051;-33
2022/01/02 07:45:24;;;;;;;0.10;0.10;;;;;;;;;;4218741;28;20048;-33
2022/01/02 07:47:43;;;;;;;0.10;0.10;;;;;;;;;;4218744;28;20054;-33
2022/01/02 07:50:03;;;;;;;0.10;0.10;;;;;;;;;;4218765;28;20044;-33
2022/01/02 07:52:23;;;;;;;0.10;0.10;;;;;;;;;;4218104;28;20067;-33
2022/01/02 07:54:42;;;;;;;0.10;0.10;;;;;;;;;;4218519;28;20071;-33
2022/01/02 07:57:02;;;;;;;0.10;0.10;;;;;;;;;;4218732;28;20142;-34
2022/01/02 07:59:21;;;;;;;0.10;0.10;;;;;;;;;;4218902;28;20052;-33
2022/01/02 08:01:40;;;;;;;0.17;0.17;;;;;;;;;;4218829;28;20044;-34
2022/01/02 08:04:00;;;;;;;0.10;0.10;;;;;;;;;;4218459;28;20056;-34
2022/01/02 08:06:19;;;;;;;0.10;0.10;;;;;;;;;;4216010;28;20326;-34
2022/01/02 08:08:39;;;;;;;0.10;0.10;;;;;;;;;;4215638;28;20048;-34
2022/01/02 08:10:59;;;;;;;0.10;0.10;;;;;;;;;;4200851;28;20044;-34
2022/01/02 08:13:18;;;;;;;0.10;0.10;;;;;;;;;;4200433;28;20520;-34
2022/01/02 08:15:38;;;;;;;0.10;0.10;;;;;;;;;;4215924;28;20056;-34
2022/01/02 08:17:57;;;;;;;0.10;0.10;;;;;;;;;;4215554;28;20051;-33
2022/01/02 08:20:16;;;;;;;0.10;0.10;;;;;;;;;;4215827;28;20048;-33
2022/01/02 08:22:36;;;;;;;0.00;0.00;;;;;;;;;;4215247;28;20052;-33
2022/01/02 08:24:55;;;;;;;0.20;0.20;;;;;;;;;;4215392;28;20060;-33
2022/01/02 08:27:15;;;;;;;0.20;0.20;;;;;;;;;;4215525;28;20044;-33
2022/01/02 08:29:34;;;;;;;0.10;0.10;;;;;;;;;;4200160;28;21055;-34
2022/01/02 08:31:54;;;;;;;0.10;0.10;;;;;;;;;;4215438;28;20464;-33
2022/01/02 08:34:13;;;;;;;0.20;0.10;;;;;;;;;;4215407;28;20472;-34
2022/01/02 08:36:32;;;;;;;0.10;0.10;;;;;;;;;;4215765;28;20105;-34
2022/01/02 08:38:52;;;;;;;0.10;0.10;;;;;;;;;;4215339;28;20329;-33
2022/01/02 08:41:11;;;;;;;;;;;;;;;;;;4216098;28;20101;-33
2022/01/02 08:43:31;;;;;;;0.10;0.10;;;;;;;;;;4215275;28;19919;-35
2022/01/02 08:45:50;;;;;;;0.10;0.10;;;;;;;;;;4200004;28;20389;-34
2022/01/02 08:48:10;;;;;;;0.10;0.08;;;;;;;;;;4214925;28;20044;-34
2022/01/02 08:50:30;;;;;;;0.20;0.17;;;;;;;;;;4215267;28;20405;-34
2022/01/02 08:52:50;;;;;;;0.10;0.10;;;;;;;;;;4214774;28;20510;-33
2022/01/02 08:55:09;;;;;;;0.10;0.10;;;;;;;;;;4215447;28;20052;-34
2022/01/02 08:57:29;;;;;;;0.10;0.10;;;;;;;;;;4215222;28;20040;-34
2022/01/02 08:59:48;;;;;;;0.10;0.10;;;;;;;;;;4215340;28;20056;-34
2022/01/02 09:02:08;;;;;;;0.10;0.10;;;;;;;;;;4215073;28;20063;-34
2022/01/02 09:04:27;;;;;;;0.10;0.10;;;;;;;;;;4215155;28;20380;-33
2022/01/02 09:06:47;;;;;;;0.10;0.10;;;;;;;;;;4214336;28;20373;-33
2022/01/02 09:09:06;;;;;;;0.10;0.10;;;;;;;;;;4214904;28;20552;-35
2022/01/02 09:11:25;;;;;;;0.10;0.10;;;;;;;;;;4214970;28;20060;-34
2022/01/02 09:13:45;;;;;;;0.20;0.20;;;;;;;;;;4215088;28;20077;-33
2022/01/02 09:16:05;;;;;;;0.10;0.10;;;;;;;;;;4214479;28;20048;-33
2022/01/02 09:18:25;;;;;;;0.10;0.10;;;;;;;;;;4214696;28;20106;-33
2022/01/02 09:20:44;;;;;;;;;;;;;;;;;;4200213;28;20098;-33
2022/01/02 09:23:04;;;;;;;0.08;0.08;;;;;;;;;;4214167;28;20005;-34
2022/01/02 09:25:24;;;;;;;;;;;;;;;;;;4215323;28;20105;-34
2022/01/02 09:27:44;;;;;;;0.10;0.10;;;;;;;;;;4214614;28;19916;-34
2022/01/02 09:30:04;;;;;;;0.25;0.10;;;;;;;;;;4214801;28;20051;-33
2022/01/02 09:32:24;;;;;;;0.15;0.10;;;;;;;;;;4214446;28;20052;-34
2022/01/02 09:34:45;;;;;;;0.03;0.03;;;;;;;;;;4214357;28;20055;-34
2022/01/02 09:37:05;;;;;;;0.10;0.10;;;;;;;;;;4213901;28;20060;-34
2022/01/02 09:39:24;;;;;;;0.10;0.08;;;;;;;;;;4214260;28;20043;-34
2022/01/02 09:41:43;;;;;;;0.10;0.10;;;;;;;;;;4214498;28;20048;-35
2022/01/02 09:44:03;;;;;;;0.10;0.10;;;;;;;;;;4214288;28;20048;-33
2022/01/02 09:46:26;;;;;;;0.10;0.10;;;;;;;;;;4214308;28;20040;-33
2022/01/02 09:48:46;;;;;;;0.00;0.00;;;;;;;;;;4214097;28;20048;-42
2022/01/02 09:51:06;;;;;;;0.00;0.00;;;;;;;;;;4214367;28;20052;-42
2022/01/02 09:53:25;;;;;;;0.10;0.10;;;;;;;;;;4213938;28;20048;-42
2022/01/02 09:55:26;;;;;;;0.20;0.10;;;;;;;;;;4196026;28;20472;-42
2022/01/02 09:57:27;;;;;;;0.10;0.10;;;;;;;;;;4213758;28;20380;-42
2022/01/02 09:59:28;;;;;;;0.10;0.10;;;;;;;;;;4213542;28;20105;-41
2022/01/02 10:01:30;;;;;;;0.10;0.10;;;;;;;;;;4213673;28;20093;-43
2022/01/02 10:03:41;;;;;;;0.10;0.10;;;;;;;;;;4214097;28;20089;-43
2022/01/02 10:05:47;;;;;;;0.00;0.00;;;;;;;;;;4213625;28;20055;-42
2022/01/02 10:07:48;;;;;;;0.10;0.10;;;;;;;;;;4212818;28;20147;-41
2022/01/02 10:09:49;;;;;;;0.10;0.10;;;;;;;;;;4213719;28;20205;-42
2022/01/02 10:11:50;;;;;;;0.08;0.08;;;;;;;;;;4212884;28;20044;-42
2022/01/02 10:13:53;;;;;;;0.15;0.15;;;;;;;;;;4212769;28;20120;-42
2022/01/02 10:15:54;;;;;;;0.10;0.10;;;;;;;;;;4213458;28;20064;-42
2022/01/02 10:18:00;;;;;;;0.20;0.10;;;;;;;;;;4213568;28;20480;-41
2022/01/02 10:20:14;;;;;;;0.20;0.10;;;;;;;;;;4213629;28;20105;-42
2022/01/02 10:22:15;;;;;;;0.00;0.00;;;;;;;;;;4212952;28;20052;-42
2022/01/02 10:24:30;;;;;;;0.10;0.10;;;;;;;;;;4213458;28;20135;-42
2022/01/02 10:26:31;;;;;;;0.52;0.10;;;;;;;;;;4213693;28;20043;-42
2022/01/02 10:28:36;;;;;;;0.20;0.20;;;;;;;;;;4178108;28;20083;-42
2022/01/02 10:30:44;;;;;;;0.10;0.10;;;;;;;;;;4213322;28;20444;-42
2022/01/02 10:32:47;;;;;;;0.20;0.20;;;;;;;;;;4213695;28;20052;-42
2022/01/02 10:34:48;;;;;;;0.10;0.10;;;;;;;;;;4213529;28;20479;-42
2022/01/02 10:36:49;;;;;;;0.10;0.10;;;;;;;;;;4212962;28;20043;-42
2022/01/02 10:39:02;;;;;;;0.20;0.10;;;;;;;;;;4213293;28;20090;-42
2022/01/02 10:41:03;;;;;;;0.03;0.03;;;;;;;;;;4213769;28;20059;-42
2022/01/02 10:43:08;;;;;;;0.20;0.10;;;;;;;;;;4213236;28;20056;-42
2022/01/02 10:45:09;;;;;;;0.30;0.20;;;;;;;;;;4213263;28;20075;-42
2022/01/02 10:47:16;;;;;;;0.00;0.00;;;;;;;;;;4213225;28;20139;-42
2022/01/02 10:49:17;;;;;;;0.10;0.10;;;;;;;;;;4213506;28;20060;-42
2022/01/02 10:51:20;;;;;;;0.10;0.10;;;;;;;;;;4213314;28;20495;-42
2022/01/02 10:53:21;;;;;;;0.40;0.08;;;;;;;;;;4212869;28;20052;-42
2022/01/02 10:55:23;;;;;;;0.08;0.08;;;;;;;;;;4213416;28;20217;-41
2022/01/02 10:57:24;;;;;;;0.10;0.10;;;;;;;;;;4213457;28;20052;-42
2022/01/02 10:59:26;;;;;;;0.10;0.10;;;;;;;;;;4213272;28;20086;-42
2022/01/02 11:01:27;;;;;;;0.10;0.05;;;;;;;;;;4213378;28;20044;-42
2022/01/02 11:03:29;;;;;;;0.10;0.10;;;;;;;;;;4213408;28;20071;-42
2022/01/02 11:05:30;;;;;;;0.03;0.03;;;;;;;;;;4195345;28;20056;-42
2022/01/02 11:07:42;;;;;;;0.10;0.10;;;;;;;;;;4212628;28;20381;-42
2022/01/02 11:09:43;;;;;;;0.30;0.17;;;;;;;;;;4195008;28;20052;-43
2022/01/02 11:11:44;;;;;;;0.10;0.10;;;;;;;;;;4213090;28;20056;-42
2022/01/02 11:13:45;;;;;;;0.10;0.10;;;;;;;;;;4213265;28;20048;-42
2022/01/02 11:15:46;;;;;;;0.10;0.10;;;;;;;;;;4213225;28;20055;-42
2022/01/02 11:17:47;;;;;;;0.10;0.10;;;;;;;;;;4213124;28;20048;-41
2022/01/02 11:19:48;;;;;;;0.00;0.00;;;;;;;;;;4213057;28;20052;-42
2022/01/02 11:21:51;;;;;;;0.10;0.10;;;;;;;;;;4212816;28;20097;-41
2022/01/02 11:24:06;;;;;;;0.10;0.10;;;;;;;;;;4213050;28;20063;-42
2022/01/02 11:26:22;;;;;;;0.10;0.10;;;;;;;;;;4195272;28;20057;-42
2022/01/02 11:28:31;;;;;;;0.10;0.10;;;;;;;;;;4212817;28;20048;-43
2022/01/02 11:30:35;;;;;;;1.00;0.10;;;;;;;;;;4213350;28;20093;-41
2022/01/02 11:32:36;;;;;;;0.15;0.10;;;;;;;;;;4213007;28;20476;-41
2022/01/02 11:34:44;;;;;;;0.00;0.00;;;;;;;;;;4213353;28;20132;-42
2022/01/02 11:36:45;;;;;;;0.10;0.10;;;;;;;;;;4194565;28;20044;-42
2022/01/02 11:38:55;;;;;;;0.00;0.00;;;;;;;;;;4213119;28;20098;-42
2022/01/02 11:40:56;;;;;;;;;;;;;;;;;;4198745;28;20095;-42
2022/01/02 11:42:57;;;;;;;0.10;0.10;;;;;;;;;;4216496;28;19916;-42
2022/01/02 11:44:58;;;;;;;0.10;0.10;;;;;;;;;;4216210;28;20102;-42
2022/01/02 11:46:59;;;;;;;0.10;0.10;;;;;;;;;;4216160;28;20109;-42
2022/01/02 11:49:15;;;;;;;0.10;0.10;;;;;;;;;;4216078;28;20048;-42
2022/01/02 11:51:36;;;;;;;0.55;0.10;;;;;;;;;;4216109;28;20048;-41
2022/01/02 11:53:51;;;;;;;0.10;0.10;;;;;;;;;;4215553;28;20040;-42
2022/01/02 11:55:53;;;;;;;0.17;0.08;;;;;;;;;;4197976;28;20044;-42
2022/01/02 11:57:54;;;;;;;0.00;0.00;;;;;;;;;;4216091;28;20044;-42
2022/01/02 11:59:56;;;;;;;0.30;0.17;;;;;;;;;;4215917;28;20087;-42
2022/01/02 12:01:59;;;;;;;0.00;0.00;;;;;;;;;;4215689;28;20048;-42
2022/01/02 12:03:59;;;;;;;0.15;0.15;;;;;;;;;;4215814;28;20386;-41
2022/01/02 12:06:13;;;;;;;0.00;0.00;;;;;;;;;;4197940;28;20055;-42
2022/01/02 12:08:32;;;;;;;0.10;0.10;;;;;;;;;;4215470;28;20056;-41
2022/01/02 12:10:35;;;;;;;0.10;0.10;;;;;;;;;;4216094;28;20036;-42
2022/01/02 12:12:55;;;;;;;0.13;0.10;;;;;;;;;;4215538;28;20464;-42
2022/01/02 12:14:57;;;;;;;0.13;0.13;;;;;;;;;;4215516;28;20476;-43
2022/01/02 12:17:08;;;;;;;0.10;0.10;;;;;;;;;;4215762;28;20609;-42
2022/01/02 12:19:09;;;;;;;0.10;0.05;;;;;;;;;;4215561;28;20055;-42
2022/01/02 12:21:11;;;;;;;0.10;0.10;;;;;;;;;;4215505;28;20056;-42
2022/01/02 12:23:42;;;;;;;0.10;0.10;;;;;;;;;;4213924;28;20052;-42
2022/01/02 12:25:45;;;;;;;0.10;0.10;;;;;;;;;;4181425;28;20056;-42
2022/01/02 12:27:55;;;;;;;0.10;0.10;;;;;;;;;;4180928;28;20424;-42
2022/01/02 12:29:56;;;;;;;0.10;0.10;;;;;;;;;;4182220;28;20056;-42
2022/01/02 12:32:00;;;;;;;0.00;0.00;;;;;;;;;;4182358;28;20045;-42
2022/01/02 12:34:05;;;;;;;0.10;0.10;;;;;;;;;;4166489;28;20134;-42
2022/01/02 12:36:12;;;;;;;0.10;0.10;;;;;;;;;;4198708;28;20094;-42
2022/01/02 12:38:13;;;;;;;0.10;0.10;;;;;;;;;;4197991;28;20385;-41
2022/01/02 12:40:15;;;;;;;0.05;0.05;;;;;;;;;;4198324;28;20152;-41
2022/01/02 12:42:16;;;;;;;0.10;0.10;;;;;;;;;;4197969;28;20044;-41
2022/01/02 12:44:25;;;;;;;0.00;0.00;;;;;;;;;;4180217;28;20131;-42
2022/01/02 12:46:33;;;;;;;0.00;0.00;;;;;;;;;;4198441;28;20049;-42
2022/01/02 12:48:35;;;;;;;0.10;0.10;;;;;;;;;;4198406;28;20057;-41
2022/01/02 12:50:37;;;;;;;0.20;0.10;;;;;;;;;;4179271;28;20049;-42
2022/01/02 12:52:38;;;;;;;0.00;0.00;;;;;;;;;;4179641;28;20049;-42
2022/01/02 12:54:41;;;;;;;0.00;0.00;;;;;;;;;;4198629;28;20453;-41
2022/01/02 12:56:46;;;;;;;0.10;0.10;;;;;;;;;;4198223;28;20044;-41
2022/01/02 12:58:47;;;;;;;0.10;0.10;;;;;;;;;;4198382;28;20049;-42
2022/01/02 13:00:49;;;;;;;0.10;0.10;;;;;;;;;;4198173;28;20056;-42
2022/01/02 13:02:51;;;;;;;0.13;0.13;;;;;;;;;;4198079;28;20052;-42
2022/01/02 13:04:53;;;;;;;0.10;0.10;;;;;;;;;;4198332;28;20052;-42
2022/01/02 13:06:54;;;;;;;0.10;0.10;;;;;;;;;;4197658;28;20060;-41
2022/01/02 13:08:55;;;;;;;0.10;0.10;;;;;;;;;;4197933;28;20114;-42
2022/01/02 13:11:07;;;;;;;0.10;0.10;;;;;;;;;;4198037;28;20443;-42
2022/01/02 13:13:08;;;;;;;0.10;0.10;;;;;;;;;;4198264;28;20056;-43
2022/01/02 13:15:13;;;;;;;0.00;0.00;;;;;;;;;;4198272;28;20138;-42
2022/01/02 13:17:17;;;;;;;0.10;0.10;;;;;;;;;;4180069;28;20191;-42
2022/01/02 13:19:18;;;;;;;0.10;0.10;;;;;;;;;;4198210;28;20093;-43
2022/01/02 13:21:19;;;;;;;0.20;0.10;;;;;;;;;;4198170;28;20131;-41
2022/01/02 13:23:20;;;;;;;0.00;0.00;;;;;;;;;;4199208;28;20056;-42
2022/01/02 13:25:26;;;;;;;0.10;0.10;;;;;;;;;;4197010;28;20052;-41
2022/01/02 13:27:27;;;;;;;0.10;0.10;;;;;;;;;;4214515;28;20483;-42
2022/01/02 13:29:28;;;;;;;0.10;0.10;;;;;;;;;;4214425;28;20100;-42
2022/01/02 13:31:29;;;;;;;0.10;0.10;;;;;;;;;;4214554;28;20044;-42
2022/01/02 13:33:31;;;;;;;0.10;0.10;;;;;;;;;;4196402;28;20170;-43
2022/01/02 13:35:32;;;;;;;0.00;0.00;;;;;;;;;;4214620;28;20044;-42
2022/01/02 13:37:35;;;;;;;0.10;0.10;;;;;;;;;;4196097;28;20048;-42
2022/01/02 13:39:46;;;;;;;0.10;0.10;;;;;;;;;;4214526;28;20047;-43
2022/01/02 13:41:51;;;;;;;0.05;0.05;;;;;;;;;;4214281;28;20461;-41
2022/01/02 13:43:52;;;;;;;0.10;0.10;;;;;;;;;;4214682;28;20055;-42